• Join FlightAware (Why Join?)
  • Login
  • US Flag 
07:45PM EDT


 

Airport Tracker/Info


-or-


 

Live Flight TrackerFlight Track Log ✈ N8082R ✈ 02-May-2012 ✈ 49A - KAYS

Flight Track Log - Related Links

Times and Time Zones

All times are in EDT time to prevent confusion due to time zone crossing. See the N8082R flight status page for this flight to view local times or setup timezone preferences in your user account.

Time Position Orientation Groundspeed Altitude Reporting Facility
EDT Latitude Longitude Course Direction KTS MPH feet Rate Location/Type
02:44PM 34.5489 -84.4853 151° Southeast 161 185 4,200  Level Atlanta Center
02:45PM 34.5219 -84.4675 140° Southeast 134 154 5,200 900 Climbing Atlanta Center
02:46PM 34.4969 -84.4419 115° Southeast 117 135 6,100 840 Climbing Atlanta Center
02:47PM 34.4825 -84.4042 108° East 111 128 6,900 420 Climbing Atlanta Center
02:48PM 34.4722 -84.3664 115° Southeast 119 137 7,000  Climbing Atlanta Center
02:49PM 34.4533 -84.3183 126° Southeast 138 159 7,000  Level Atlanta Center
02:50PM 34.4264 -84.2731 122° Southeast 153 176 7,000  Level Atlanta Center
02:51PM 34.4056 -84.2325 112° Southeast 160 184 7,000 -60 Level Atlanta Center
02:52PM 34.3889 -84.1822 111° Southeast 155 178 6,900  Descending Atlanta Center
02:53PM 34.3722 -84.1294 107° East 150 173 7,000  Climbing Atlanta Center
02:54PM 34.3578 -84.0739 112° Southeast 155 178 7,000 -120 Level Atlanta Center
02:55PM 34.3500 -84.0500 112° Southeast 163 188 6,900  Descending Atlanta TRACON
02:56PM 34.3333 -84.0000 112° Southeast 156 180 7,000  Climbing Atlanta TRACON
02:57PM 34.3167 -83.9500 112° Southeast 160 184 7,000  Level Atlanta TRACON
02:58PM 34.3000 -83.9000 112° Southeast 157 181 7,100  Climbing Atlanta TRACON
02:59PM 34.2833 -83.8500 129° Southeast 166 191 7,000 -120 Descending Atlanta TRACON
02:59PM 34.2700 -83.8300 158° South 155 178 7,000  Level Atlanta Center
03:00PM 34.2303 -83.8103 157° South 148 170 7,000  Level Atlanta Center
03:01PM 34.1906 -83.7903 158° South 154 177 7,000  Level Atlanta Center
03:02PM 34.1550 -83.7728 157° South 154 177 7,000  Level Atlanta Center
03:03PM 34.1153 -83.7528 157° South 154 177 7,000  Level Atlanta Center
03:04PM 34.0756 -83.7328 159° South 154 177 7,000  Level Atlanta Center
03:07PM 33.9667 -83.6833 157° South 152 175 7,000  Level Atlanta TRACON
03:08PM 33.9333 -83.6667 165° South 155 178 7,000  Level Atlanta TRACON
03:09PM 33.8833 -83.6500 140° Southeast 154 177 7,000  Level Atlanta TRACON
03:10PM 33.8500 -83.6167 157° South 156 180 7,000  Level Atlanta TRACON
03:11PM 33.8167 -83.6000 165° South 153 176 7,000  Level Atlanta TRACON
03:12PM 33.7667 -83.5833 157° South 154 177 7,000  Level Atlanta TRACON
03:13PM 33.7333 -83.5667 165° South 155 178 7,000  Level Atlanta TRACON
03:14PM 33.6833 -83.5500 157° South 153 176 7,000  Level Atlanta TRACON
03:15PM 33.6500 -83.5333 140° Southeast 156 180 7,000  Level Atlanta TRACON
03:16PM 33.6167 -83.5000 164° South 153 176 7,000  Level Atlanta TRACON
03:17PM 33.5667 -83.4833 157° South 155 178 7,000  Level Atlanta TRACON
03:18PM 33.5333 -83.4667 164° South 155 178 7,000  Level Atlanta TRACON
03:19PM 33.4833 -83.4500 157° South 158 182 7,000  Level Atlanta TRACON
03:20PM 33.4500 -83.4333 157° South 155 178 7,000  Level Atlanta TRACON
03:21PM 33.4167 -83.4167 164° South 152 175 7,000  Level Atlanta TRACON
03:22PM 33.3667 -83.4000 157° South 152 175 7,000  Level Atlanta TRACON
03:23PM 33.3333 -83.3833 140° Southeast 152 175 7,000 -60 Level Atlanta TRACON
03:24PM 33.3000 -83.3500 164° South 155 178 6,900 -60 Descending Atlanta TRACON
03:25PM 33.2500 -83.3333 157° South 152 175 6,900  Level Atlanta TRACON
03:26PM 33.2167 -83.3167 157° South 157 181 6,900  Level Atlanta TRACON
03:27PM 33.1833 -83.3000 164° South 154 177 6,900  Level Atlanta TRACON
03:28PM 33.1333 -83.2833 157° South 154 177 6,900  Level Atlanta TRACON
03:29PM 33.1000 -83.2667 151° Southeast 155 178 6,900  Level Atlanta TRACON
03:30PM 33.0500 -83.2333 157° South 158 182 6,900  Level Atlanta TRACON
03:31PM 33.0167 -83.2167 164° South 159 183 6,900  Level Atlanta TRACON
03:32PM 32.9667 -83.2000 157° South 156 180 6,900  Level Atlanta TRACON
03:33PM 32.9333 -83.1833 157° South 156 180 6,900  Level Atlanta TRACON
03:34PM 32.9000 -83.1667 164° South 155 178 6,900  Level Atlanta TRACON
03:35PM 32.8500 -83.1500 157° South 154 177 6,900  Level Atlanta TRACON
03:36PM 32.8167 -83.1333 164° South 153 176 6,900  Level Atlanta TRACON
03:37PM 32.7667 -83.1167 140° Southeast 151 174 6,900  Level Atlanta TRACON
03:38PM 32.7333 -83.0833 157° South 153 176 6,900  Level Atlanta TRACON
03:39PM 32.7000 -83.0667 164° South 155 178 6,900  Level Atlanta TRACON
03:40PM 32.6500 -83.0500 160° South 154 177 6,900  Level Atlanta TRACON
03:42PM 32.5778 -83.0183 155° Southeast 157 181 7,000  Climbing Jacksonville Center
03:43PM 32.5381 -82.9961 157° South 157 181 7,000  Level Jacksonville Center
03:44PM 32.4983 -82.9764 160° South 157 181 7,000  Level Jacksonville Center
03:45PM 32.4589 -82.9592 160° South 152 175 7,000  Level Jacksonville Center
03:46PM 32.4192 -82.9417 158° South 152 175 7,000  Level Jacksonville Center
03:47PM 32.3794 -82.9222 160° South 152 175 7,000  Level Jacksonville Center
03:48PM 32.3397 -82.9050 157° South 152 175 7,000  Level Jacksonville Center
03:49PM 32.3003 -82.8853 159° South 152 175 7,000  Level Jacksonville Center
03:50PM 32.2625 -82.8681 155° Southeast 147 169 7,000  Level Jacksonville Center
03:51PM 32.2228 -82.8458 160° South 147 169 7,000  Level Jacksonville Center
03:52PM 32.1833 -82.8289 159° South 147 169 7,000  Level Jacksonville Center
03:53PM 32.1456 -82.8117 158° South 147 169 7,000  Level Jacksonville Center
03:54PM 32.1039 -82.7919 159° South 152 175 7,000  Level Jacksonville Center
03:55PM 32.0664 -82.7750 157° South 152 175 7,000 -60 Level Jacksonville Center
03:56PM 32.0267 -82.7553 156° South 145 167 6,900  Descending Jacksonville Center
03:57PM 31.9889 -82.7358 158° South 151 174 7,000  Climbing Jacksonville Center
03:58PM 31.9472 -82.7164 161° South 151 174 7,000  Level Jacksonville Center
03:59PM 31.9053 -82.6992 156° South 151 174 7,000  Level Jacksonville Center
04:00PM 31.8678 -82.6797 161° South 151 174 7,000  Level Jacksonville Center
04:01PM 31.8261 -82.6628 158° South 151 174 7,000  Level Jacksonville Center
04:02PM 31.7842 -82.6433 158° South 151 174 7,000 -300 Level Jacksonville Center
04:03PM 31.7425 -82.6239 158° South 151 174 6,500 -540 Descending Jacksonville Center
04:04PM 31.7006 -82.6044 159° South 157 181 6,000 -600 Descending Jacksonville Center
04:05PM 31.6567 -82.5850 161° South 157 181 5,300 -540 Descending Jacksonville Center
04:06PM 31.6150 -82.5681 161° South 162 186 5,000 -300 Descending Jacksonville Center